Homewood, Illinois
Current Conditions -  °F | °C
As of 9:35 AM on Thursday 30 Oct 2014 (Local Time) from KIGQ Reporting Station
Clear Clear  
Wind Chill:   Ceiling: Unl
Heat Index:   Visibility: 10mi
Dew Point:   Wind: 3mph
Humidity: 81%   Direction: 220°SW
Pressure: 30.16"   Gusts: NA
Location:  41.56°N, 87.66°W
Report Text: KIGQ 301435Z AUTO 22003KT 10SM CLR 05/02 A3016 RMK AO2 T00510020
Loading
Personal Weather Stations






























Interactive Weather Map
Tropical Storm Tracking
New forecast layout! Learn more

10-Day Weather Forecast

Advertisements
Track Severe Weather on mobile